Terminal Aerodrome Forecast
Issued by NWS

Current Version | Previous Version | Text Only | Print | Product List | Glossary On
Versions: 1 2 3 4 5 6 7 8 9 10 11 12
679
FTUS42 TJSJ 201143
TAFJSJ
TAF
TJSJ 201143Z 2012/2112 07010KT P6SM VCSH FEW024 SCT050 SCT090
     FM201300 07017G27KT P6SM VCSH SCT030 SCT050
     FM202300 09010KT P6SM FEW060=

USA.gov is the U.S. government's official web portal to all federal, state and local government web resources and services.